SBPL/PNZ METAR and TAF weather

Enter ICAO airport designator
Station Type Date Time Source
SBPL METAR 2018/12/13 09:00 UTC NOAA

SBPL 130900Z 15005KT CAVOK 23/18 Q1016


Station Type Date Time Source
SBPL Decoded METAR 2018/12/13 09:00 UTC NOAA

Petrolina , Brazil (SBPL) 09-21S 040-33W
Dec 13, 2018 - 04:00 AM EST / 2018.12.13 0900 UTC
Wind: from the SSE (150 degrees) at 6 MPH (5 KT):0
Visibility: greater than 7 mile(s):0
Temperature: 73 F (23 C)
Dew Point: 64 F (18 C)
Relative Humidity: 73%
Pressure (altimeter): 30.00 in. Hg (1016 hPa)
ob: SBPL 130900Z 15005KT CAVOK 23/18 Q1016
cycle: 9

Station Type Date Time Source
SBPL TAF 2018/12/13 06:34 UTC NOAA

TAF SBPL 130100Z 1306/1406 14008KT 8000 SCT025 TN23/1308Z TX32/1317Z
BECMG 1310/1311 14014KT
BECMG 1401/1402 14009KT
RMK PEA


Example: see airport list